Time;durP1;ratioP1;P1;durP2;ratioP2;P2;SDS_P1;SDS_P2;PMS_P1;PMS_P2;Temp;Humidity;BMP_temperature;BMP_pressure;BME280_temperature;BME280_humidity;BME280_pressure;Samples;Min_cycle;Max_cycle;Signal;HPM_P1;HPM_P2
2022/08/23 00:00:43;;;;;;;;;;;23.40;82.30;;;;;;5116516;28;19920;-55
2022/08/23 00:03:09;;;;;;;;;;;23.30;82.20;;;;;;5116461;28;19920;-54
2022/08/23 00:05:35;;;;;;;;;;;23.30;82.20;;;;;;5116210;28;19915;-53
2022/08/23 00:08:00;;;;;;;;;;;23.30;82.10;;;;;;5116112;28;19912;-54
2022/08/23 00:10:26;;;;;;;;;;;23.30;82.20;;;;;;5116478;28;20239;-55
2022/08/23 00:12:51;;;;;;;;;;;23.30;82.10;;;;;;5116165;28;20366;-55
2022/08/23 00:15:19;;;;;;;;;;;23.30;82.10;;;;;;5116708;28;19911;-55
2022/08/23 00:17:45;;;;;;;;;;;23.30;82.10;;;;;;5115981;28;19912;-51
2022/08/23 00:20:11;;;;;;;;;;;23.30;82.20;;;;;;5116371;28;20019;-53
2022/08/23 00:22:38;;;;;;;;;;;23.30;82.20;;;;;;5115813;28;20335;-50
2022/08/23 00:25:05;;;;;;;;;;;23.30;82.20;;;;;;5116075;28;20274;-54
2022/08/23 00:27:32;;;;;;;;;;;23.30;82.10;;;;;;5116088;28;19908;-53
2022/08/23 00:29:58;;;;;;;;;;;23.30;82.10;;;;;;5115039;28;19919;-56
2022/08/23 00:32:23;;;;;;;;;;;23.30;82.20;;;;;;5116021;28;19912;-53
2022/08/23 00:34:49;;;;;;;;;;;23.30;82.20;;;;;;5115777;28;19907;-52
2022/08/23 00:37:14;;;;;;;;;;;23.30;82.20;;;;;;5115875;28;19991;-56
2022/08/23 00:39:40;;;;;;;;;;;23.30;82.20;;;;;;5115778;28;19908;-54
2022/08/23 00:47:45;;;;;;;;;;;23.30;82.20;;;;;;5115423;28;19919;-54
2022/08/23 00:50:16;;;;;;;;;;;23.30;82.20;;;;;;5115576;28;19908;-55
2022/08/23 00:52:47;;;;;;;;;;;23.30;82.20;;;;;;5115681;28;19956;-54
2022/08/23 00:55:12;;;;;;;;;;;23.30;82.20;;;;;;5115298;28;19908;-52
2022/08/23 00:57:38;;;;;;;;;;;23.30;82.20;;;;;;5115735;28;19961;-54
2022/08/23 01:00:06;;;;;;;;;;;23.30;82.20;;;;;;5115332;28;20011;-53
2022/08/23 01:02:31;;;;;;;;;;;23.30;82.20;;;;;;5115039;28;19920;-55
2022/08/23 01:04:58;;;;;;;;;;;23.30;82.20;;;;;;5115354;28;19956;-50
2022/08/23 01:07:32;;;;;;;;;;;23.20;82.20;;;;;;5115152;28;19908;-53
2022/08/23 01:10:00;;;;;;;;;;;23.30;82.20;;;;;;5114788;28;20324;-51
2022/08/23 01:12:29;;;;;;;;;;;23.30;82.20;;;;;;5115099;28;20362;-55
2022/08/23 01:15:00;;;;;;;;;;;23.30;82.20;;;;;;5114730;28;19914;-55
2022/08/23 01:17:28;;;;;;;;;;;23.20;82.20;;;;;;5115030;28;19908;-54
2022/08/23 01:19:56;;;;;;;;;;;23.20;82.20;;;;;;5114990;28;20307;-54
2022/08/23 01:22:30;;;;;;;;;;;23.30;82.20;;;;;;5114956;28;19908;-52
2022/08/23 01:24:55;;;;;;;;;;;23.30;82.20;;;;;;5115327;28;20373;-54
2022/08/23 01:27:21;;;;;;;;;;;23.30;82.20;;;;;;5114869;28;19915;-55
2022/08/23 01:29:47;;;;;;;;;;;23.20;82.20;;;;;;5115111;28;19915;-53
2022/08/23 01:32:13;;;;;;;;;;;23.30;82.20;;;;;;5114812;28;20403;-54
2022/08/23 01:34:38;;;;;;;;;;;23.20;82.20;;;;;;5114825;28;19983;-51
2022/08/23 01:37:05;;;;;;;;;;;23.20;82.20;;;;;;5114469;28;20347;-51
2022/08/23 01:39:30;;;;;;;;;;;23.20;82.20;;;;;;5114602;28;19961;-52
2022/08/23 01:41:56;;;;;;;;;;;23.20;82.20;;;;;;5114000;28;20316;-56
2022/08/23 01:44:22;;;;;;;;;;;23.20;82.20;;;;;;5114276;28;19908;-52
2022/08/23 01:46:47;;;;;;;;;;;23.20;82.20;;;;;;5114590;28;19912;-53
2022/08/23 01:49:13;;;;;;;;;;;23.20;82.20;;;;;;5114062;28;20441;-53
2022/08/23 01:51:39;;;;;;;;;;;23.20;82.20;;;;;;5114263;28;20002;-54
2022/08/23 01:54:04;;;;;;;;;;;23.20;82.20;;;;;;5114274;28;19914;-53
2022/08/23 01:56:31;;;;;;;;;;;23.20;82.20;;;;;;5114659;28;19908;-53
2022/08/23 01:58:57;;;;;;;;;;;23.20;82.20;;;;;;5114462;28;19949;-54
2022/08/23 02:01:22;;;;;;;;;;;23.20;82.20;;;;;;5114105;28;19915;-52
2022/08/23 02:03:48;;;;;;;;;;;23.20;82.20;;;;;;5114111;28;19927;-55
2022/08/23 02:06:13;;;;;;;;;;;23.20;82.20;;;;;;5114418;28;19998;-56
2022/08/23 02:11:23;;;;;;;;;;;23.20;82.20;;;;;;5114166;28;19915;-55
2022/08/23 02:13:50;;;;;;;;;;;23.20;82.20;;;;;;5114556;28;19915;-54
2022/08/23 02:16:22;;;;;;;;;;;23.20;82.20;;;;;;5114077;28;20331;-54
2022/08/23 02:18:47;;;;;;;;;;;23.20;82.20;;;;;;5113950;28;19947;-54
2022/08/23 02:21:13;;;;;;;;;;;23.20;82.20;;;;;;5113973;28;20004;-55
2022/08/23 02:23:38;;;;;;;;;;;23.20;82.20;;;;;;5113979;28;19915;-52
2022/08/23 02:26:05;;;;;;;;;;;23.20;82.20;;;;;;5114208;28;19908;-53
2022/08/23 02:28:31;;;;;;;;;;;23.20;82.20;;;;;;5114235;28;19911;-49
2022/08/23 02:30:56;;;;;;;;;;;23.20;82.20;;;;;;5114216;28;19907;-54
2022/08/23 02:33:22;;;;;;;;;;;23.20;82.20;;;;;;5114546;28;19908;-55
2022/08/23 02:35:48;;;;;;;;;;;23.20;82.20;;;;;;5114002;28;19915;-51
2022/08/23 02:38:14;;;;;;;;;;;23.10;82.20;;;;;;5114537;28;20339;-52
2022/08/23 02:40:40;;;;;;;;;;;23.20;82.20;;;;;;5113876;28;19922;-53
2022/08/23 02:43:06;;;;;;;;;;;23.20;82.20;;;;;;5114152;28;19908;-55
2022/08/23 02:45:31;;;;;;;;;;;23.10;82.20;;;;;;5114061;28;19908;-52
2022/08/23 02:47:57;;;;;;;;;;;23.20;82.20;;;;;;5113870;28;19907;-52
2022/08/23 02:50:23;;;;;;;;;;;23.10;82.20;;;;;;5113900;28;19908;-55
2022/08/23 03:14:45;;;;;;;;;;;23.10;82.10;;;;;;5093969;28;19977;-51
2022/08/23 03:17:10;;;;;;;;;;;23.10;82.10;;;;;;5095540;28;20286;-54
2022/08/23 03:19:36;;;;;;;;;;;23.10;82.10;;;;;;5097144;28;19926;-54
2022/08/23 03:22:01;;;;;;;;;;;23.10;82.10;;;;;;5097153;28;19931;-56
2022/08/23 03:24:27;;;;;;;;;;;23.10;82.20;;;;;;5096905;28;20016;-54
2022/08/23 03:26:52;;;;;;;;;;;23.10;82.10;;;;;;5096475;28;19908;-56
2022/08/23 03:29:18;;;;;;;;;;;23.10;82.20;;;;;;5096819;28;20309;-52
2022/08/23 03:31:44;;;;;;;;;;;23.10;82.10;;;;;;5096497;28;19994;-54
2022/08/23 03:34:11;;;;;;;;;;;23.10;82.10;;;;;;5096411;28;19908;-54
2022/08/23 03:36:36;;;;;;;;;;;23.10;82.10;;;;;;5096779;28;20302;-52
2022/08/23 03:39:03;;;;;;;;;;;23.10;82.10;;;;;;5096833;28;19958;-56
2022/08/23 03:41:28;;;;;;;;;;;23.10;82.10;;;;;;5096195;28;19916;-53
2022/08/23 03:43:54;;;;;;;;;;;23.10;82.10;;;;;;5096484;28;19908;-52
2022/08/23 03:46:22;;;;;;;;;;;23.10;82.10;;;;;;5096509;28;19977;-55
2022/08/23 03:48:52;;;;;;;;;;;23.10;82.10;;;;;;5096406;28;19934;-55
2022/08/23 03:51:17;;;;;;;;;;;23.10;82.10;;;;;;5096336;28;19912;-56
2022/08/23 03:53:45;;;;;;;;;;;23.10;82.10;;;;;;5096334;28;19953;-54
2022/08/23 03:56:19;;;;;;;;;;;23.10;82.10;;;;;;5095945;28;19908;-56
2022/08/23 03:58:44;;;;;;;;;;;23.10;82.10;;;;;;5095943;28;19909;-54
2022/08/23 04:01:10;;;;;;;;;;;23.10;82.10;;;;;;5096063;28;19923;-53
2022/08/23 04:03:35;;;;;;;;;;;23.10;82.10;;;;;;5095492;28;20247;-55
2022/08/23 04:06:01;;;;;;;;;;;23.10;82.10;;;;;;5095547;28;19961;-54
2022/08/23 04:08:27;;;;;;;;;;;23.10;82.10;;;;;;5095743;28;19908;-55
2022/08/23 04:10:52;;;;;;;;;;;23.10;82.10;;;;;;5095843;28;19909;-55
2022/08/23 04:13:18;;;;;;;;;;;23.10;82.10;;;;;;5096063;28;19918;-52
2022/08/23 04:15:43;;;;;;;;;;;23.10;82.10;;;;;;5102859;28;20282;-54
2022/08/23 04:18:09;;;;;;;;;;;23.10;82.10;;;;;;5097763;28;20007;-51
2022/08/23 04:20:35;;;;;;;;;;;23.10;82.10;;;;;;5097301;28;19916;-52
2022/08/23 04:23:01;;;;;;;;;;;23.10;82.10;;;;;;5115760;28;19911;-51
2022/08/23 04:25:27;;;;;;;;;;;23.10;82.10;;;;;;5115496;28;20014;-54
2022/08/23 04:27:53;;;;;;;;;;;23.10;82.10;;;;;;5115515;28;19908;-54
2022/08/23 04:30:19;;;;;;;;;;;23.10;82.10;;;;;;5097543;28;19907;-56
2022/08/23 04:32:44;;;;;;;;;;;23.10;82.10;;;;;;5097380;28;19908;-56
2022/08/23 04:35:10;;;;;;;;;;;23.10;82.10;;;;;;5097428;28;20282;-54
2022/08/23 04:37:36;;;;;;;;;;;23.10;82.10;;;;;;5115676;28;20354;-55
2022/08/23 04:42:47;;;;;;;;;;;23.10;82.10;;;;;;5115323;28;19933;-53
2022/08/23 04:45:13;;;;;;;;;;;23.00;82.10;;;;;;5115558;28;20311;-55
2022/08/23 04:47:40;;;;;;;;;;;23.10;82.10;;;;;;5115285;28;20002;-53
2022/08/23 04:50:06;;;;;;;;;;;23.10;82.10;;;;;;5115438;28;20278;-55
2022/08/23 04:52:31;;;;;;;;;;;23.10;82.10;;;;;;5115133;28;19908;-51
2022/08/23 04:54:56;;;;;;;;;;;23.10;82.10;;;;;;5115033;28;19915;-55
2022/08/23 04:57:22;;;;;;;;;;;23.10;82.10;;;;;;5114933;28;20049;-56
2022/08/23 04:59:47;;;;;;;;;;;23.00;82.10;;;;;;5114929;28;19934;-55
2022/08/23 05:02:13;;;;;;;;;;;23.10;82.10;;;;;;5114868;28;19964;-50
2022/08/23 05:04:38;;;;;;;;;;;23.10;82.20;;;;;;5115053;28;20272;-55
2022/08/23 05:07:04;;;;;;;;;;;23.10;82.10;;;;;;5115054;28;19998;-56
2022/08/23 05:09:29;;;;;;;;;;;23.10;82.10;;;;;;5114812;28;19930;-56
2022/08/23 05:11:55;;;;;;;;;;;23.10;82.10;;;;;;5114760;28;19908;-53
2022/08/23 05:14:20;;;;;;;;;;;23.10;82.10;;;;;;5114669;28;19907;-50
2022/08/23 05:16:46;;;;;;;;;;;23.10;82.00;;;;;;5114227;28;19920;-51
2022/08/23 05:19:11;;;;;;;;;;;23.10;82.10;;;;;;5096577;28;19947;-54
2022/08/23 05:21:37;;;;;;;;;;;23.10;82.20;;;;;;5115004;28;20266;-56
2022/08/23 05:24:02;;;;;;;;;;;23.10;82.10;;;;;;5096902;28;19908;-55
2022/08/23 05:26:28;;;;;;;;;;;23.00;82.10;;;;;;5114811;28;19918;-51
2022/08/23 05:28:53;;;;;;;;;;;23.10;82.10;;;;;;5114419;28;20393;-56
2022/08/23 05:31:20;;;;;;;;;;;23.10;82.10;;;;;;5114625;28;19932;-53
2022/08/23 05:33:46;;;;;;;;;;;23.10;82.10;;;;;;5114509;28;19908;-55
2022/08/23 05:36:12;;;;;;;;;;;23.10;82.10;;;;;;5114473;28;19915;-53
2022/08/23 05:38:38;;;;;;;;;;;23.10;82.10;;;;;;5114552;28;19912;-56
2022/08/23 05:41:04;;;;;;;;;;;23.10;82.10;;;;;;5114533;28;19942;-54
2022/08/23 05:43:30;;;;;;;;;;;23.10;82.00;;;;;;5114556;28;19922;-54
2022/08/23 05:46:07;;;;;;;;;;;23.10;82.00;;;;;;5113511;28;19908;-55
2022/08/23 05:48:33;;;;;;;;;;;23.10;82.10;;;;;;5114251;28;19908;-52
2022/08/23 05:51:27;;;;;;;;;;;23.10;82.10;;;;;;5113960;28;19912;-52
2022/08/23 05:53:55;;;;;;;;;;;23.10;82.10;;;;;;5092079;28;20295;-51
2022/08/23 05:56:29;;;;;;;;;;;23.10;82.10;;;;;;5114001;28;20362;-55
2022/08/23 05:58:56;;;;;;;;;;;23.10;82.10;;;;;;5114028;28;19908;-55
2022/08/23 06:01:22;;;;;;;;;;;23.10;82.10;;;;;;5113878;28;19923;-54
2022/08/23 06:03:48;;;;;;;;;;;23.10;82.10;;;;;;5114012;28;19911;-54
2022/08/23 06:06:14;;;;;;;;;;;23.10;82.10;;;;;;5113707;28;19949;-53
2022/08/23 06:08:41;;;;;;;;;;;23.10;82.10;;;;;;5114094;28;19907;-54
2022/08/23 06:11:08;;;;;;;;;;;23.10;82.10;;;;;;5114139;28;19997;-51
2022/08/23 06:13:34;;;;;;;;;;;23.10;82.10;;;;;;5113797;28;20005;-52
2022/08/23 06:15:59;;;;;;;;;;;23.10;82.10;;;;;;5113613;28;19920;-54
2022/08/23 06:18:26;;;;;;;;;;;23.10;82.10;;;;;;5113762;28;19972;-51
2022/08/23 06:21:01;;;;;;;;;;;23.10;82.10;;;;;;5114016;28;19938;-55
2022/08/23 06:23:27;;;;;;;;;;;23.10;82.10;;;;;;5114048;28;19908;-55
2022/08/23 06:25:52;;;;;;;;;;;23.10;82.10;;;;;;5113606;28;19915;-55
2022/08/23 06:28:18;;;;;;;;;;;23.10;82.10;;;;;;5116734;28;19931;-55
2022/08/23 06:30:43;;;;;;;;;;;23.10;82.10;;;;;;5117879;28;19961;-55
2022/08/23 06:33:11;;;;;;;;;;;23.10;82.10;;;;;;5118089;28;19973;-52
2022/08/23 06:35:37;;;;;;;;;;;23.10;82.10;;;;;;5099447;28;19912;-56
2022/08/23 06:38:03;;;;;;;;;;;23.10;82.10;;;;;;5117489;28;19907;-55
2022/08/23 06:40:28;;;;;;;;;;;23.10;82.10;;;;;;5117592;28;19920;-54
2022/08/23 06:42:54;;;;;;;;;;;23.10;82.10;;;;;;5117890;28;20369;-53
2022/08/23 06:45:19;;;;;;;;;;;23.10;82.00;;;;;;5117378;28;20417;-55
2022/08/23 06:47:45;;;;;;;;;;;23.10;82.00;;;;;;5099163;28;20289;-52
2022/08/23 06:50:11;;;;;;;;;;;23.10;82.10;;;;;;5117561;28;20287;-57
2022/08/23 06:52:36;;;;;;;;;;;23.10;82.00;;;;;;5117427;28;19911;-55
2022/08/23 06:55:02;;;;;;;;;;;23.10;82.10;;;;;;5117211;28;20271;-53
2022/08/23 06:57:28;;;;;;;;;;;23.10;82.00;;;;;;5117537;28;19960;-55
2022/08/23 06:59:53;;;;;;;;;;;23.10;82.10;;;;;;5116897;28;19907;-53
2022/08/23 07:02:19;;;;;;;;;;;23.10;82.00;;;;;;5117161;28;19972;-54
2022/08/23 07:04:44;;;;;;;;;;;23.20;82.00;;;;;;5117192;28;19915;-57
2022/08/23 07:07:10;;;;;;;;;;;23.10;82.00;;;;;;5117035;28;20406;-54
2022/08/23 07:09:36;;;;;;;;;;;23.10;82.00;;;;;;5117409;28;19908;-54
2022/08/23 07:12:01;;;;;;;;;;;23.10;82.00;;;;;;5117315;28;19953;-55
2022/08/23 07:14:27;;;;;;;;;;;23.10;82.10;;;;;;5117413;28;19934;-56
2022/08/23 07:16:55;;;;;;;;;;;23.10;82.10;;;;;;5117386;28;20018;-52
2022/08/23 07:19:22;;;;;;;;;;;23.10;82.10;;;;;;5116909;28;19907;-54
2022/08/23 07:21:48;;;;;;;;;;;23.10;82.10;;;;;;5116841;28;19973;-56
2022/08/23 07:24:14;;;;;;;;;;;23.10;82.10;;;;;;5116852;28;19908;-55
2022/08/23 07:26:40;;;;;;;;;;;23.10;82.10;;;;;;5116910;28;19912;-51
2022/08/23 07:29:07;;;;;;;;;;;23.10;82.10;;;;;;5098600;28;19908;-52
2022/08/23 07:31:34;;;;;;;;;;;23.10;82.10;;;;;;5117087;28;19998;-53
2022/08/23 07:34:00;;;;;;;;;;;23.10;82.20;;;;;;5116953;28;19908;-51
2022/08/23 07:36:27;;;;;;;;;;;23.10;82.20;;;;;;5116747;28;19908;-54
2022/08/23 07:38:53;;;;;;;;;;;23.10;82.20;;;;;;5115930;28;19907;-53
2022/08/23 07:41:19;;;;;;;;;;;23.10;82.10;;;;;;5116490;28;19926;-52
2022/08/23 07:43:45;;;;;;;;;;;23.10;82.20;;;;;;5116496;28;19945;-53
2022/08/23 07:46:11;;;;;;;;;;;23.10;82.20;;;;;;5116540;28;19912;-57
2022/08/23 07:48:37;;;;;;;;;;;23.10;82.30;;;;;;5116401;28;19911;-54
2022/08/23 07:51:05;;;;;;;;;;;23.10;82.20;;;;;;5116614;28;19908;-55
2022/08/23 07:53:30;;;;;;;;;;;23.10;82.70;;;;;;5116545;28;19977;-55
2022/08/23 07:55:56;;;;;;;;;;;23.10;82.30;;;;;;5116324;28;20353;-56
2022/08/23 07:58:23;;;;;;;;;;;23.10;82.20;;;;;;5116168;28;19914;-57
2022/08/23 08:00:49;;;;;;;;;;;23.10;82.20;;;;;;5115795;28;20350;-56
2022/08/23 08:03:15;;;;;;;;;;;23.10;82.20;;;;;;5115997;28;19914;-54
2022/08/23 08:05:41;;;;;;;;;;;23.10;82.30;;;;;;5116054;28;19908;-57
2022/08/23 08:08:07;;;;;;;;;;;23.10;82.20;;;;;;5116193;28;19915;-53
2022/08/23 08:10:37;;;;;;;;;;;23.10;82.30;;;;;;5115832;28;19908;-52
2022/08/23 08:13:02;;;;;;;;;;;23.10;82.20;;;;;;5115800;28;19908;-52
2022/08/23 08:15:28;;;;;;;;;;;23.10;82.20;;;;;;5115687;28;20381;-53
2022/08/23 08:17:54;;;;;;;;;;;23.10;82.20;;;;;;5115948;28;19923;-54
2022/08/23 08:20:20;;;;;;;;;;;23.10;82.20;;;;;;5115976;28;19920;-56
2022/08/23 08:22:46;;;;;;;;;;;23.10;82.20;;;;;;5116171;28;19908;-51
2022/08/23 08:25:12;;;;;;;;;;;23.10;82.10;;;;;;5115849;28;20004;-53
2022/08/23 08:27:37;;;;;;;;;;;23.10;82.10;;;;;;5115581;28;20354;-56
2022/08/23 08:30:03;;;;;;;;;;;23.10;82.10;;;;;;5115839;28;19907;-53
2022/08/23 08:32:29;;;;;;;;;;;23.10;82.10;;;;;;5097406;28;20002;-56
2022/08/23 08:34:55;;;;;;;;;;;23.20;82.20;;;;;;5115898;28;19947;-54
2022/08/23 08:37:20;;;;;;;;;;;23.10;82.10;;;;;;5097450;28;19908;-54
2022/08/23 08:39:46;;;;;;;;;;;23.20;82.10;;;;;;5115868;28;19908;-57
2022/08/23 08:42:11;;;;;;;;;;;23.20;82.10;;;;;;5115519;28;19916;-52
2022/08/23 08:44:40;;;;;;;;;;;23.20;82.10;;;;;;5097201;28;20285;-57
2022/08/23 08:47:07;;;;;;;;;;;23.20;82.00;;;;;;5115055;28;20002;-57
2022/08/23 08:49:42;;;;;;;;;;;23.20;82.00;;;;;;5114654;28;20373;-54
2022/08/23 08:52:21;;;;;;;;;;;23.20;82.00;;;;;;5115166;28;19957;-56
2022/08/23 08:54:49;;;;;;;;;;;23.20;82.00;;;;;;5115139;28;19947;-53
2022/08/23 08:57:17;;;;;;;;;;;23.20;82.00;;;;;;5115402;28;19907;-55
2022/08/23 08:59:45;;;;;;;;;;;23.20;82.00;;;;;;5097025;28;20000;-55
2022/08/23 09:02:14;;;;;;;;;;;23.20;82.00;;;;;;5115188;28;20251;-56
2022/08/23 09:04:40;;;;;;;;;;;23.20;82.00;;;;;;5115234;28;19915;-57
2022/08/23 09:07:10;;;;;;;;;;;23.20;82.00;;;;;;5115317;28;19908;-56
2022/08/23 09:09:42;;;;;;;;;;;23.20;82.00;;;;;;5115352;28;19915;-51
2022/08/23 09:12:25;;;;;;;;;;;23.20;82.00;;;;;;5115326;28;19986;-53
2022/08/23 09:15:01;;;;;;;;;;;23.20;82.10;;;;;;5114887;28;19908;-55
2022/08/23 09:17:35;;;;;;;;;;;23.20;82.10;;;;;;5114474;28;19930;-55
2022/08/23 09:20:03;;;;;;;;;;;23.20;82.10;;;;;;5114816;28;19919;-56
2022/08/23 09:22:35;;;;;;;;;;;23.20;82.10;;;;;;5114890;28;19907;-56
2022/08/23 09:25:00;;;;;;;;;;;23.20;82.10;;;;;;5096443;28;19907;-55
2022/08/23 09:27:26;;;;;;;;;;;23.20;82.10;;;;;;5115061;28;19973;-55
2022/08/23 09:29:54;;;;;;;;;;;23.20;82.10;;;;;;5114742;28;19974;-55
2022/08/23 09:32:31;;;;;;;;;;;23.20;82.10;;;;;;5096353;28;19911;-56
2022/08/23 09:35:05;;;;;;;;;;;23.20;82.10;;;;;;5114547;28;19915;-56
2022/08/23 09:37:44;;;;;;;;;;;23.20;82.10;;;;;;5114310;28;19912;-56
2022/08/23 09:40:12;;;;;;;;;;;23.20;82.10;;;;;;5114300;28;19953;-55
2022/08/23 09:42:39;;;;;;;;;;;23.20;82.10;;;;;;5115390;28;19915;-55
2022/08/23 09:45:05;;;;;;;;;;;23.20;82.10;;;;;;5114468;28;19918;-54
2022/08/23 09:47:35;;;;;;;;;;;23.20;82.10;;;;;;5114128;28;19912;-53
2022/08/23 09:50:27;;;;;;;;;;;23.20;82.10;;;;;;5114048;28;19957;-56
2022/08/23 09:52:55;;;;;;;;;;;23.20;82.10;;;;;;5109668;28;20002;-56
2022/08/23 09:55:35;;;;;;;;;;;23.20;82.10;;;;;;5114528;28;19908;-55
2022/08/23 09:58:02;;;;;;;;;;;23.20;82.10;;;;;;5114323;28;19951;-53
2022/08/23 10:00:29;;;;;;;;;;;23.20;82.10;;;;;;5113976;28;19916;-56
2022/08/23 10:03:14;;;;;;;;;;;23.20;82.10;;;;;;5113951;28;20358;-55
2022/08/23 10:05:40;;;;;;;;;;;23.20;82.10;;;;;;5113757;28;19915;-55
2022/08/23 10:08:06;;;;;;;;;;;23.20;82.10;;;;;;5113728;28;20346;-55
2022/08/23 10:10:47;;;;;;;;;;;23.20;82.10;;;;;;5114298;28;20310;-54
2022/08/23 10:13:12;;;;;;;;;;;23.20;82.00;;;;;;5114121;28;20378;-54
2022/08/23 10:15:44;;;;;;;;;;;23.20;82.00;;;;;;5114066;28;19998;-55
2022/08/23 10:18:28;;;;;;;;;;;23.20;82.00;;;;;;5114056;28;19908;-54
2022/08/23 10:21:06;;;;;;;;;;;23.20;82.00;;;;;;5113760;28;19916;-56
2022/08/23 10:23:47;;;;;;;;;;;23.20;82.10;;;;;;5113934;28;19958;-57
2022/08/23 10:26:19;;;;;;;;;;;23.20;82.10;;;;;;5113805;28;19953;-53
2022/08/23 10:32:01;;;;;;;;;;;23.20;82.10;;;;;;5114278;28;19942;-57
2022/08/23 10:34:45;;;;;;;;;;;23.20;82.00;;;;;;5113791;28;20002;-56
2022/08/23 10:37:17;;;;;;;;;;;23.20;82.00;;;;;;5114028;28;19915;-57
2022/08/23 10:40:09;;;;;;;;;;;23.20;82.00;;;;;;5113975;28;19915;-53
2022/08/23 10:42:53;;;;;;;;;;;23.20;82.00;;;;;;5108888;28;20259;-57
2022/08/23 10:45:24;;;;;;;;;;;23.20;82.10;;;;;;5114030;28;19961;-54
2022/08/23 10:47:57;;;;;;;;;;;23.20;82.10;;;;;;5113786;28;19908;-53
2022/08/23 10:50:24;;;;;;;;;;;23.20;82.10;;;;;;5113775;28;19950;-56
2022/08/23 10:52:54;;;;;;;;;;;23.20;82.00;;;;;;5095782;28;19943;-54
2022/08/23 10:55:53;;;;;;;;;;;23.20;82.00;;;;;;5095365;28;19914;-55
2022/08/23 10:58:25;;;;;;;;;;;23.20;82.10;;;;;;5095574;28;19999;-57
2022/08/23 11:00:51;;;;;;;;;;;23.20;82.00;;;;;;5113510;28;20334;-57
2022/08/23 11:03:31;;;;;;;;;;;23.20;82.00;;;;;;5113091;28;19908;-52
2022/08/23 11:06:15;;;;;;;;;;;23.20;82.00;;;;;;5113281;28;19914;-52
2022/08/23 11:08:45;;;;;;;;;;;23.20;82.00;;;;;;5113213;28;19995;-55
2022/08/23 11:11:30;;;;;;;;;;;23.20;82.00;;;;;;5113303;28;19914;-54
2022/08/23 11:13:55;;;;;;;;;;;23.20;82.10;;;;;;5115096;28;19933;-55
2022/08/23 11:16:27;;;;;;;;;;;23.20;82.10;;;;;;5116434;28;20391;-53
2022/08/23 11:18:53;;;;;;;;;;;23.20;82.10;;;;;;5116971;28;19961;-55
2022/08/23 11:21:43;;;;;;;;;;;23.20;82.60;;;;;;5116933;28;19920;-54
2022/08/23 11:24:11;;;;;;;;;;;23.20;82.00;;;;;;5104303;28;19915;-54
2022/08/23 11:26:38;;;;;;;;;;;23.20;82.00;;;;;;5117489;28;19961;-51
2022/08/23 11:29:07;;;;;;;;;;;23.20;82.00;;;;;;5116614;28;20354;-53
2022/08/23 11:31:34;;;;;;;;;;;23.20;81.90;;;;;;5116788;28;19947;-53
2022/08/23 11:34:05;;;;;;;;;;;23.20;81.90;;;;;;5116935;28;19942;-56
2022/08/23 11:36:32;;;;;;;;;;;23.20;82.00;;;;;;5116598;28;20346;-54
2022/08/23 11:38:57;;;;;;;;;;;23.20;81.90;;;;;;5116839;28;19907;-55
2022/08/23 11:41:25;;;;;;;;;;;23.20;81.90;;;;;;5116740;28;19916;-55
2022/08/23 11:43:54;;;;;;;;;;;23.20;81.90;;;;;;5116450;28;20004;-54
2022/08/23 11:46:25;;;;;;;;;;;23.20;81.90;;;;;;5116847;28;19908;-55
2022/08/23 11:49:03;;;;;;;;;;;23.20;81.90;;;;;;5116672;28;20044;-55
2022/08/23 11:51:35;;;;;;;;;;;23.20;81.90;;;;;;5116603;28;19918;-54
2022/08/23 11:54:23;;;;;;;;;;;23.20;82.00;;;;;;5116531;28;20045;-57
2022/08/23 11:57:08;;;;;;;;;;;23.20;82.00;;;;;;5115784;28;19995;-56
2022/08/23 11:59:42;;;;;;;;;;;23.20;81.90;;;;;;5116240;28;19942;-53
2022/08/23 12:02:30;;;;;;;;;;;23.20;82.00;;;;;;5116120;28;20394;-53
2022/08/23 12:04:57;;;;;;;;;;;23.20;82.00;;;;;;5116102;28;19915;-54
2022/08/23 12:07:42;;;;;;;;;;;23.20;82.00;;;;;;5116005;28;19915;-55
2022/08/23 12:10:08;;;;;;;;;;;23.20;82.00;;;;;;5097886;28;19919;-55
2022/08/23 12:12:34;;;;;;;;;;;23.20;82.00;;;;;;5116530;28;19908;-52
2022/08/23 12:15:01;;;;;;;;;;;23.20;82.00;;;;;;5097625;28;19960;-54
2022/08/23 12:17:27;;;;;;;;;;;23.20;82.00;;;;;;5115727;28;19915;-54
2022/08/23 12:19:53;;;;;;;;;;;23.20;82.00;;;;;;5116001;28;19986;-52
2022/08/23 12:22:20;;;;;;;;;;;23.20;82.00;;;;;;5115560;28;20030;-54
2022/08/23 12:24:54;;;;;;;;;;;23.20;82.00;;;;;;5115442;28;19907;-54
2022/08/23 12:27:20;;;;;;;;;;;23.20;81.90;;;;;;5116151;28;20242;-54
2022/08/23 12:29:57;;;;;;;;;;;23.20;81.90;;;;;;5097383;28;19915;-52
2022/08/23 12:32:32;;;;;;;;;;;23.20;82.00;;;;;;5115323;28;20330;-54
2022/08/23 12:35:10;;;;;;;;;;;23.20;81.90;;;;;;5115776;28;19980;-55
2022/08/23 12:37:51;;;;;;;;;;;23.20;81.90;;;;;;5115744;28;19955;-55
2022/08/23 12:40:31;;;;;;;;;;;23.20;82.00;;;;;;5115359;28;19912;-54
2022/08/23 12:43:05;;;;;;;;;;;23.20;82.00;;;;;;5115775;28;19958;-55
2022/08/23 12:45:36;;;;;;;;;;;23.20;81.90;;;;;;5114888;28;19908;-52
2022/08/23 12:48:01;;;;;;;;;;;23.20;81.90;;;;;;5115284;28;19958;-54
2022/08/23 12:50:30;;;;;;;;;;;23.20;81.90;;;;;;5115076;28;19946;-55
2022/08/23 12:52:57;;;;;;;;;;;23.20;81.90;;;;;;5115455;28;19915;-53
2022/08/23 12:55:22;;;;;;;;;;;23.20;81.90;;;;;;5115273;28;19914;-54
2022/08/23 12:57:53;;;;;;;;;;;23.20;81.90;;;;;;5114876;28;19916;-55
2022/08/23 13:00:21;;;;;;;;;;;23.20;81.80;;;;;;5096489;28;19923;-54
2022/08/23 13:02:50;;;;;;;;;;;23.20;81.80;;;;;;5114942;28;20305;-55
2022/08/23 13:05:32;;;;;;;;;;;23.20;81.80;;;;;;5114796;28;20354;-55
2022/08/23 13:08:00;;;;;;;;;;;23.20;81.80;;;;;;5114221;28;19972;-50
2022/08/23 13:10:26;;;;;;;;;;;23.20;81.90;;;;;;5115072;28;19908;-55
2022/08/23 13:12:52;;;;;;;;;;;23.20;81.90;;;;;;5115408;28;19919;-54
2022/08/23 13:15:36;;;;;;;;;;;23.20;81.90;;;;;;5114233;28;19930;-55
2022/08/23 13:18:01;;;;;;;;;;;23.20;81.90;;;;;;5114402;28;20354;-55
2022/08/23 13:20:27;;;;;;;;;;;23.20;81.90;;;;;;5096314;28;19922;-53
2022/08/23 13:22:57;;;;;;;;;;;23.20;81.90;;;;;;5114801;28;19908;-53
2022/08/23 13:25:25;;;;;;;;;;;23.20;81.90;;;;;;5096671;28;19908;-53
2022/08/23 13:27:52;;;;;;;;;;;23.20;81.80;;;;;;5114485;28;20350;-55
2022/08/23 13:30:21;;;;;;;;;;;23.20;81.80;;;;;;5114181;28;19934;-54
2022/08/23 13:32:48;;;;;;;;;;;23.20;81.80;;;;;;5114412;28;19947;-54
2022/08/23 13:35:33;;;;;;;;;;;23.20;81.80;;;;;;5114242;28;19915;-51
2022/08/23 13:38:00;;;;;;;;;;;23.20;81.80;;;;;;5113970;28;19955;-54
2022/08/23 13:40:27;;;;;;;;;;;23.20;81.80;;;;;;5096031;28;19916;-53
2022/08/23 13:43:04;;;;;;;;;;;23.20;81.80;;;;;;5114600;28;19908;-54
2022/08/23 13:45:31;;;;;;;;;;;23.20;81.80;;;;;;5114224;28;20358;-50
2022/08/23 13:48:06;;;;;;;;;;;23.20;81.80;;;;;;5114058;28;19907;-56
2022/08/23 13:50:33;;;;;;;;;;;23.20;81.80;;;;;;5114015;28;19914;-56
2022/08/23 13:52:59;;;;;;;;;;;23.20;81.80;;;;;;5113986;28;19972;-54
2022/08/23 13:55:25;;;;;;;;;;;23.20;81.90;;;;;;5113698;28;19908;-52
2022/08/23 13:57:51;;;;;;;;;;;23.20;81.80;;;;;;5113912;28;19907;-51
2022/08/23 14:00:17;;;;;;;;;;;23.20;81.80;;;;;;5113718;28;19908;-53
2022/08/23 14:02:43;;;;;;;;;;;23.20;81.80;;;;;;5114142;28;19915;-52
2022/08/23 14:05:10;;;;;;;;;;;23.20;82.40;;;;;;5114098;28;19908;-55
2022/08/23 14:07:36;;;;;;;;;;;23.20;81.90;;;;;;5114319;28;19914;-55
2022/08/23 14:10:02;;;;;;;;;;;23.20;81.90;;;;;;5114127;28;19908;-54
2022/08/23 14:12:29;;;;;;;;;;;23.20;81.80;;;;;;5113847;28;19939;-52
2022/08/23 14:14:55;;;;;;;;;;;23.20;81.80;;;;;;5113456;28;20362;-54
2022/08/23 14:17:20;;;;;;;;;;;23.20;81.80;;;;;;5113979;28;19954;-55
2022/08/23 14:19:47;;;;;;;;;;;23.20;81.80;;;;;;5095932;28;19908;-56
2022/08/23 14:22:13;;;;;;;;;;;23.20;81.80;;;;;;5113991;28;20457;-54
2022/08/23 14:24:39;;;;;;;;;;;23.20;81.80;;;;;;5114057;28;19972;-53
2022/08/23 14:27:05;;;;;;;;;;;23.20;81.80;;;;;;5113654;28;19908;-52
2022/08/23 14:29:31;;;;;;;;;;;23.20;81.80;;;;;;5113933;28;19908;-54
2022/08/23 14:31:57;;;;;;;;;;;23.20;81.80;;;;;;5113557;28;19915;-55
2022/08/23 14:34:24;;;;;;;;;;;23.20;81.80;;;;;;5113576;28;20006;-55
2022/08/23 14:36:51;;;;;;;;;;;23.20;81.80;;;;;;5114116;28;20023;-56
2022/08/23 14:39:16;;;;;;;;;;;23.20;81.80;;;;;;5113873;28;20041;-55
2022/08/23 14:41:42;;;;;;;;;;;23.20;81.80;;;;;;5113561;28;20018;-54
2022/08/23 14:44:07;;;;;;;;;;;23.20;81.80;;;;;;5113851;28;19957;-56
2022/08/23 14:46:33;;;;;;;;;;;23.20;81.80;;;;;;5113126;28;19913;-54
2022/08/23 14:48:58;;;;;;;;;;;23.20;81.80;;;;;;5115740;28;19908;-54
2022/08/23 14:51:24;;;;;;;;;;;23.20;81.80;;;;;;5118210;28;20010;-56
2022/08/23 14:53:49;;;;;;;;;;;23.20;82.30;;;;;;5117593;28;19908;-56
2022/08/23 14:56:15;;;;;;;;;;;23.20;81.80;;;;;;5117694;28;20006;-56
2022/08/23 14:58:41;;;;;;;;;;;23.20;81.70;;;;;;5099092;28;19908;-56